createdAt,value
2018-05-31T02:53:02.667Z,99.90
2018-05-31T02:55:35.696Z,99.90
2018-05-31T02:58:08.799Z,99.90
2018-05-31T03:00:41.967Z,99.90
2018-05-31T03:03:15.105Z,99.90
2018-05-31T03:05:48.404Z,99.90
2018-05-31T03:08:21.607Z,99.90
2018-05-31T03:10:54.795Z,99.90
2018-05-31T03:13:27.991Z,99.90
2018-05-31T03:16:01.182Z,99.90
2018-05-31T03:18:35.184Z,99.90
2018-05-31T03:21:08.291Z,99.90
2018-05-31T03:23:42.283Z,99.90
2018-05-31T03:26:15.296Z,99.90
2018-05-31T03:28:48.496Z,99.90
2018-05-31T03:31:22.464Z,99.90
2018-05-31T03:33:56.455Z,99.90
2018-05-31T03:36:29.748Z,99.90
2018-05-31T03:39:02.865Z,99.90
2018-05-31T03:41:36.098Z,99.90
2018-05-31T03:44:09.360Z,99.90
2018-05-31T03:46:43.452Z,99.90
2018-05-31T03:49:16.682Z,99.90
2018-05-31T03:51:49.975Z,99.90
2018-05-31T03:54:22.986Z,99.90
2018-05-31T03:56:56.267Z,99.90
2018-05-31T03:59:30.319Z,99.90
2018-05-31T04:02:03.665Z,99.90
2018-05-31T04:04:36.897Z,99.90
2018-05-31T04:07:10.713Z,99.90
2018-05-31T04:09:44.001Z,99.90
2018-05-31T04:12:18.178Z,99.90
2018-05-31T04:14:51.555Z,99.90
2018-05-31T04:17:25.047Z,99.90
2018-05-31T04:19:59.778Z,99.90
2018-05-31T04:22:33.493Z,99.90
2018-05-31T04:25:07.290Z,99.90
2018-05-31T04:27:40.965Z,99.90
2018-05-31T04:30:14.782Z,99.90
2018-05-31T04:32:48.071Z,99.90
2018-05-31T04:35:22.359Z,99.90
2018-05-31T04:37:55.751Z,99.90
2018-05-31T04:40:29.781Z,99.90
2018-05-31T04:43:03.233Z,99.90
2018-05-31T04:45:36.680Z,99.90
2018-05-31T04:48:11.629Z,99.90
2018-05-31T04:50:45.106Z,99.90
2018-05-31T04:53:18.519Z,99.90
2018-05-31T04:55:52.326Z,99.90
2018-05-31T04:58:25.764Z,99.90
2018-05-31T05:00:59.161Z,99.90
2018-05-31T05:03:32.985Z,99.90
2018-05-31T05:06:07.012Z,99.90
2018-05-31T05:08:41.024Z,99.90
2018-05-31T05:11:14.250Z,99.90
2018-05-31T05:13:48.337Z,99.90
2018-05-31T05:16:21.594Z,99.90
2018-05-31T05:18:54.582Z,99.90
2018-05-31T05:21:27.908Z,99.90
2018-05-31T05:24:01.144Z,99.90
2018-05-31T05:26:34.537Z,99.90
2018-05-31T05:29:07.636Z,99.90
2018-05-31T05:31:40.903Z,99.90
2018-05-31T05:34:14.034Z,99.90
2018-05-31T05:36:47.993Z,99.90
2018-05-31T05:39:21.150Z,99.90
2018-05-31T05:41:54.343Z,99.90
2018-05-31T05:44:27.469Z,99.90
2018-05-31T05:47:00.657Z,99.90
2018-05-31T05:49:34.556Z,99.90
2018-05-31T05:52:08.559Z,99.90
2018-05-31T05:54:42.514Z,99.90
2018-05-31T05:57:15.793Z,99.90
2018-05-31T05:59:49.014Z,99.90
2018-05-31T06:02:22.118Z,99.90
2018-05-31T06:04:55.336Z,99.90
2018-05-31T06:07:29.373Z,99.90
2018-05-31T06:10:03.353Z,99.90
2018-05-31T06:12:36.423Z,99.90
2018-05-31T06:15:09.659Z,99.90
2018-05-31T06:17:42.743Z,99.90
2018-05-31T06:20:15.899Z,99.90
2018-05-31T06:22:48.904Z,99.90
2018-05-31T06:25:22.120Z,99.90
2018-05-31T06:27:56.130Z,99.90
2018-05-31T06:30:29.346Z,99.90
2018-05-31T06:33:02.806Z,99.90
2018-05-31T06:35:36.709Z,99.90
2018-05-31T06:38:09.753Z,99.90
2018-05-31T06:41:06.978Z,99.90
2018-05-31T06:43:48.054Z,99.90
2018-05-31T06:46:21.250Z,99.90
2018-05-31T06:48:54.559Z,99.90
2018-05-31T06:51:28.529Z,99.90
2018-05-31T06:54:04.855Z,99.90
2018-05-31T07:05:43.152Z,99.90
2018-05-31T07:08:17.008Z,99.90
2018-05-31T07:10:50.184Z,99.90
2018-05-31T07:13:23.425Z,99.90
2018-05-31T07:15:56.607Z,99.90
2018-05-31T07:18:29.732Z,99.90
2018-05-31T07:21:02.943Z,99.90
2018-05-31T07:23:36.150Z,99.90
2018-05-31T07:26:09.963Z,99.90
2018-05-31T07:28:43.124Z,99.90
2018-05-31T07:31:16.322Z,99.90
2018-05-31T07:33:49.355Z,99.90
2018-05-31T07:36:23.896Z,99.80
2018-05-31T07:38:57.606Z,99.80
2018-05-31T07:41:31.542Z,99.10
2018-05-31T07:44:04.673Z,99.30
2018-05-31T07:46:37.806Z,97.70
2018-05-31T07:49:11.112Z,96.60
2018-05-31T07:51:44.248Z,96.50
2018-05-31T07:54:17.461Z,95.80
2018-05-31T07:56:50.666Z,95.20
2018-05-31T07:59:23.839Z,95.40
2018-05-31T08:01:57.044Z,95.20
2018-05-31T08:04:30.265Z,96.00
2018-05-31T08:07:03.867Z,96.90
2018-05-31T08:09:36.913Z,98.10
2018-05-31T08:12:10.170Z,97.80
2018-05-31T08:14:43.350Z,98.10
2018-05-31T08:17:16.416Z,98.30
2018-05-31T08:19:49.625Z,98.00
2018-05-31T08:22:22.819Z,97.10
2018-05-31T08:24:56.035Z,99.00
2018-05-31T08:27:30.027Z,99.30
2018-05-31T08:30:04.026Z,98.80
2018-05-31T08:32:37.200Z,98.80
2018-05-31T08:35:10.484Z,99.10
2018-05-31T08:37:43.652Z,98.90
2018-05-31T08:40:16.856Z,99.80
2018-05-31T08:42:50.104Z,99.60
2018-05-31T08:45:23.315Z,99.00
2018-05-31T08:47:56.351Z,96.30
2018-05-31T08:50:29.600Z,95.50
2018-05-31T08:53:02.803Z,98.80
2018-05-31T08:55:35.955Z,97.90
2018-05-31T08:58:09.142Z,98.60
2018-05-31T09:00:42.360Z,97.20
2018-05-31T09:03:15.453Z,95.40
2018-05-31T09:05:48.654Z,96.80
2018-05-31T09:08:21.712Z,97.50
2018-05-31T09:10:54.858Z,96.20
2018-05-31T09:13:28.031Z,96.20
2018-05-31T09:16:01.171Z,94.80
2018-05-31T09:18:34.166Z,93.70
2018-05-31T09:21:07.356Z,94.80
2018-05-31T09:23:40.519Z,94.50
2018-05-31T09:26:14.475Z,92.90
2018-05-31T09:28:47.730Z,93.00
2018-05-31T09:31:20.926Z,92.90
2018-05-31T09:33:54.252Z,91.50
2018-05-31T09:36:27.452Z,90.00
2018-05-31T09:39:01.311Z,87.00
2018-05-31T09:41:35.794Z,91.30
2018-05-31T09:47:09.416Z,84.40
2018-05-31T09:49:42.736Z,84.30
2018-05-31T09:52:16.897Z,84.10
2018-05-31T09:57:38.267Z,90.20
2018-05-31T10:00:11.417Z,89.30
2018-05-31T10:02:45.432Z,84.70
2018-05-31T10:05:18.704Z,84.50
2018-05-31T10:07:51.819Z,90.60
2018-05-31T10:10:24.830Z,91.10
2018-05-31T10:12:57.759Z,92.50
2018-05-31T10:15:31.728Z,92.00
2018-05-31T10:18:05.819Z,92.20
2018-05-31T10:20:39.071Z,94.10
2018-05-31T10:23:12.060Z,93.80
2018-05-31T10:25:45.245Z,90.90
2018-05-31T10:28:18.527Z,91.80
2018-05-31T10:30:51.693Z,90.80
2018-05-31T10:33:24.858Z,91.00
2018-05-31T10:35:59.242Z,90.00
2018-05-31T10:38:32.536Z,90.10
2018-05-31T10:41:06.413Z,91.20
2018-05-31T10:43:40.211Z,91.20
2018-05-31T10:46:14.126Z,86.90
2018-05-31T10:48:47.204Z,86.80
2018-05-31T10:51:20.437Z,85.30
2018-05-31T10:53:54.487Z,86.30
2018-05-31T10:56:27.737Z,86.20
2018-05-31T10:59:00.991Z,87.10
2018-05-31T11:01:34.230Z,83.40
2018-05-31T11:04:07.490Z,85.50
2018-05-31T11:06:41.494Z,80.80
2018-05-31T11:09:14.805Z,80.80
2018-05-31T11:11:47.943Z,80.50
2018-05-31T11:14:22.003Z,79.40
2018-05-31T11:16:55.140Z,79.40
2018-05-31T11:19:28.287Z,79.60
2018-05-31T11:22:01.684Z,83.20
2018-05-31T11:24:34.768Z,84.00
2018-05-31T11:27:07.906Z,81.30
2018-05-31T11:29:41.123Z,82.80
2018-05-31T11:32:14.384Z,78.70
2018-05-31T11:34:47.596Z,76.10
2018-05-31T11:37:20.769Z,77.50
2018-05-31T11:39:54.018Z,79.20
2018-05-31T11:42:27.242Z,80.10
2018-05-31T11:45:00.419Z,78.10
2018-05-31T11:47:34.968Z,79.80
2018-05-31T11:50:08.024Z,79.80
2018-05-31T11:52:41.113Z,78.20
2018-05-31T11:55:14.255Z,80.30
2018-05-31T11:57:48.446Z,82.60
2018-05-31T12:00:21.613Z,82.50
2018-05-31T12:02:54.816Z,81.30
2018-05-31T12:05:27.994Z,78.80
2018-05-31T12:08:01.179Z,82.60
2018-05-31T12:10:34.245Z,78.40
2018-05-31T12:13:07.451Z,78.00
2018-05-31T12:15:40.705Z,80.10
2018-05-31T12:18:13.916Z,78.60
2018-05-31T12:20:47.976Z,76.90
2018-05-31T12:23:21.266Z,76.80
2018-05-31T12:25:54.390Z,77.20
2018-05-31T12:28:27.576Z,77.70
2018-05-31T12:31:00.726Z,75.80
2018-05-31T12:33:33.673Z,75.60
2018-05-31T12:36:08.006Z,75.10
2018-05-31T12:38:41.215Z,77.00
2018-05-31T12:41:14.947Z,75.00
2018-05-31T12:43:48.984Z,73.40
2018-05-31T12:46:22.175Z,73.70
2018-05-31T12:49:03.260Z,72.40
2018-05-31T12:51:36.252Z,72.40
2018-05-31T12:54:10.172Z,73.90
2018-05-31T12:56:43.398Z,73.80
2018-05-31T12:59:16.424Z,72.60
2018-05-31T13:01:50.130Z,69.50
2018-05-31T13:04:23.071Z,69.40
2018-05-31T13:06:56.143Z,70.50
2018-05-31T13:09:29.251Z,70.90
2018-05-31T13:12:02.279Z,71.40
2018-05-31T13:14:35.465Z,70.20
2018-05-31T13:17:08.672Z,70.30
2018-05-31T13:19:42.548Z,67.10
2018-05-31T13:22:16.279Z,68.30
2018-05-31T13:24:49.484Z,71.30
2018-05-31T13:27:22.717Z,67.10
2018-05-31T13:29:55.945Z,68.80
2018-05-31T13:32:29.003Z,66.60
2018-05-31T13:35:02.048Z,65.10
2018-05-31T13:37:35.179Z,65.70
2018-05-31T13:40:08.375Z,65.00
2018-05-31T13:42:41.564Z,65.50
2018-05-31T13:45:15.537Z,65.30
2018-05-31T13:47:49.505Z,63.70
2018-05-31T13:50:23.477Z,62.60
2018-05-31T13:52:56.675Z,62.50
2018-05-31T13:55:29.899Z,66.10
2018-05-31T13:58:03.045Z,63.40
2018-05-31T14:00:36.305Z,64.40
2018-05-31T14:03:09.624Z,62.10
2018-05-31T14:05:42.772Z,61.60
2018-05-31T14:08:16.742Z,63.80
2018-05-31T14:10:49.903Z,63.70
2018-05-31T14:13:22.983Z,64.30
2018-05-31T14:15:56.194Z,61.50
2018-05-31T14:18:29.383Z,61.80
2018-05-31T14:21:02.607Z,64.80
2018-05-31T14:23:35.779Z,64.10
2018-05-31T14:26:09.037Z,63.00
2018-05-31T14:28:42.241Z,64.80
2018-05-31T14:31:15.224Z,66.50
2018-05-31T14:33:48.363Z,66.40
2018-05-31T14:36:21.619Z,64.20
2018-05-31T14:38:54.711Z,66.60
2018-05-31T14:41:27.742Z,66.00
2018-05-31T14:44:00.978Z,63.40
2018-05-31T14:46:33.987Z,61.60
2018-05-31T14:49:07.943Z,55.00
2018-05-31T14:51:41.068Z,54.90
2018-05-31T14:54:14.277Z,58.70
2018-05-31T14:56:47.366Z,63.50
2018-05-31T14:59:21.266Z,54.30
2018-05-31T15:01:54.355Z,54.20
2018-05-31T15:04:27.502Z,50.30
2018-05-31T15:07:00.707Z,56.20
2018-05-31T15:09:33.819Z,61.80
2018-05-31T15:12:06.992Z,53.90
2018-05-31T15:14:40.944Z,49.20
2018-05-31T15:17:14.163Z,49.20
2018-05-31T15:19:47.385Z,47.50
2018-05-31T15:22:21.356Z,45.00
2018-05-31T15:24:54.612Z,44.90
2018-05-31T15:27:27.780Z,46.70
2018-05-31T15:30:00.931Z,46.30
2018-05-31T15:32:33.887Z,45.10
2018-05-31T15:35:07.893Z,42.80
2018-05-31T15:37:41.111Z,42.70
2018-05-31T15:40:14.271Z,43.50
2018-05-31T15:42:47.227Z,41.50
2018-05-31T15:45:20.535Z,42.50
2018-05-31T15:47:54.395Z,45.10
2018-05-31T15:50:28.436Z,46.40
2018-05-31T15:53:01.581Z,46.30
2018-05-31T15:55:34.716Z,48.20
2018-05-31T15:58:07.880Z,48.60
2018-05-31T16:00:41.453Z,46.80
2018-05-31T16:03:14.445Z,48.50
2018-05-31T16:05:47.652Z,48.10
2018-05-31T16:08:20.874Z,50.00
2018-05-31T16:10:54.091Z,50.00
2018-05-31T16:13:27.366Z,51.10
2018-05-31T16:16:01.160Z,52.40
2018-05-31T16:18:34.830Z,52.00
2018-05-31T16:21:10.324Z,47.70
2018-05-31T16:23:44.166Z,47.10
2018-05-31T16:26:17.955Z,42.60
2018-05-31T16:28:51.523Z,43.60
2018-05-31T16:31:25.379Z,46.90
2018-05-31T16:33:59.147Z,47.30
2018-05-31T16:36:32.732Z,47.10
2018-05-31T16:39:06.541Z,47.40
2018-05-31T16:41:40.158Z,49.10
2018-05-31T16:44:13.828Z,46.90
2018-05-31T16:46:48.200Z,47.40
2018-05-31T16:49:21.347Z,47.30
2018-05-31T16:51:54.597Z,45.60
2018-05-31T16:54:27.628Z,46.20
2018-05-31T16:57:00.904Z,45.90
2018-05-31T16:59:34.623Z,50.00
2018-05-31T17:02:07.778Z,50.00
2018-05-31T17:04:40.977Z,53.20
2018-05-31T17:07:14.798Z,58.30
2018-05-31T17:09:48.003Z,58.30
2018-05-31T17:12:21.215Z,60.60
2018-05-31T17:14:54.456Z,61.40
2018-05-31T17:17:27.612Z,61.80
2018-05-31T17:20:00.825Z,63.40
2018-05-31T17:22:34.884Z,67.30
2018-05-31T17:25:08.128Z,67.30
2018-05-31T17:27:41.355Z,67.50
2018-05-31T17:30:14.588Z,65.40
2018-05-31T17:32:47.714Z,63.40
2018-05-31T17:35:20.927Z,66.90
2018-05-31T17:37:54.071Z,67.30
2018-05-31T17:40:27.300Z,67.10
2018-05-31T17:43:00.488Z,67.20
2018-05-31T17:45:33.619Z,65.00
2018-05-31T17:48:06.795Z,64.10
2018-05-31T17:50:39.827Z,61.80
2018-05-31T17:53:12.993Z,62.80
2018-05-31T17:55:46.307Z,62.20
2018-05-31T17:58:19.571Z,59.90
2018-05-31T18:00:53.484Z,60.30
2018-05-31T18:03:27.443Z,59.00
2018-05-31T18:06:02.289Z,61.60
2018-05-31T18:08:35.356Z,61.60
2018-05-31T18:11:08.572Z,59.30
2018-05-31T18:13:41.591Z,59.00
2018-05-31T18:16:15.328Z,58.00
2018-05-31T18:18:48.557Z,57.40
2018-05-31T18:21:21.739Z,57.40
2018-05-31T18:23:54.937Z,57.90
2018-05-31T18:26:28.904Z,58.50
2018-05-31T18:29:02.068Z,58.50
2018-05-31T18:31:35.301Z,60.40
2018-05-31T18:34:08.516Z,62.20
2018-05-31T18:36:41.633Z,64.00
2018-05-31T18:39:14.810Z,64.80
2018-05-31T18:41:48.023Z,67.60
2018-05-31T18:44:21.956Z,66.30
2018-05-31T18:46:55.116Z,66.00
2018-05-31T18:49:28.316Z,66.10
2018-05-31T18:52:01.505Z,64.90
2018-05-31T18:54:34.715Z,65.40
2018-05-31T18:57:07.905Z,67.10
2018-05-31T18:59:41.778Z,66.00
2018-05-31T19:02:14.795Z,66.00
2018-05-31T19:04:48.012Z,68.10
2018-05-31T19:07:21.996Z,70.80
2018-05-31T19:09:55.721Z,71.80
2018-05-31T19:12:28.863Z,71.70
2018-05-31T19:15:02.054Z,69.20
2018-05-31T19:17:35.051Z,68.60
2018-05-31T19:20:08.183Z,70.00
2018-05-31T19:22:42.199Z,70.20
2018-05-31T19:25:15.435Z,70.20
2018-05-31T19:27:48.625Z,69.60
2018-05-31T19:30:21.883Z,69.60
2018-05-31T19:32:54.925Z,70.10
2018-05-31T19:35:28.145Z,70.90
2018-05-31T19:38:01.342Z,69.00
2018-05-31T19:40:34.557Z,69.90
2018-05-31T19:43:07.797Z,68.30
2018-05-31T19:45:40.996Z,69.20
2018-05-31T19:48:14.168Z,68.60
2018-05-31T19:50:47.379Z,69.20
2018-05-31T19:53:20.484Z,69.80
2018-05-31T19:55:53.505Z,70.50
2018-05-31T19:58:26.764Z,72.00
2018-05-31T20:01:14.330Z,73.40
2018-05-31T20:03:48.097Z,76.40
2018-05-31T20:06:21.349Z,76.30
2018-05-31T20:08:54.542Z,76.30
2018-05-31T20:11:27.585Z,75.30
2018-05-31T20:14:00.834Z,76.30
2018-05-31T20:16:34.035Z,77.30
2018-05-31T20:19:07.225Z,76.70
2018-05-31T20:21:40.383Z,76.70
2018-05-31T20:24:13.619Z,77.70
2018-05-31T20:26:46.800Z,76.80
2018-05-31T20:29:19.998Z,77.50
2018-05-31T20:31:53.245Z,79.40
2018-05-31T20:34:27.253Z,81.10
2018-05-31T20:37:00.392Z,81.00
2018-05-31T20:39:33.609Z,79.40
2018-05-31T20:42:07.964Z,79.20
2018-05-31T20:44:41.147Z,80.30
2018-05-31T20:47:14.465Z,80.60
2018-05-31T20:49:47.607Z,81.20
2018-05-31T20:52:20.820Z,83.00
2018-05-31T20:54:54.935Z,85.00
2018-05-31T20:57:27.987Z,85.00
2018-05-31T21:00:01.165Z,85.90
2018-05-31T21:02:35.151Z,86.40
2018-05-31T21:05:08.379Z,86.30
2018-05-31T21:07:41.635Z,88.00
2018-05-31T21:10:14.864Z,88.10
2018-05-31T21:12:48.131Z,87.40
2018-05-31T21:15:21.299Z,87.50
2018-05-31T21:17:55.181Z,89.40
2018-05-31T21:20:28.314Z,89.30
2018-05-31T21:23:01.791Z,89.20
2018-05-31T21:25:34.862Z,90.50
2018-05-31T21:28:08.748Z,88.80
2018-05-31T21:30:42.747Z,87.80
2018-05-31T21:33:15.692Z,87.70
2018-05-31T21:35:48.947Z,85.70
2018-05-31T21:38:22.215Z,88.20
2018-05-31T21:40:55.412Z,88.90
2018-05-31T21:43:28.611Z,89.10
2018-05-31T21:46:01.800Z,90.50
2018-05-31T21:48:35.019Z,91.20
2018-05-31T21:51:08.289Z,91.00
2018-05-31T21:53:41.678Z,90.90
2018-05-31T21:56:15.683Z,91.10
2018-05-31T21:58:48.804Z,91.00
2018-05-31T22:01:21.944Z,91.10
2018-05-31T22:03:55.223Z,91.40
2018-05-31T22:06:28.265Z,91.30
2018-05-31T22:09:01.578Z,92.30
2018-05-31T22:11:34.732Z,91.90
2018-05-31T22:14:07.940Z,93.20
2018-05-31T22:16:41.860Z,94.70
2018-05-31T22:19:15.092Z,95.50
2018-05-31T22:21:48.271Z,96.80
2018-05-31T22:24:21.463Z,98.30
2018-05-31T22:26:55.351Z,99.90
2018-05-31T22:29:28.445Z,99.90
2018-05-31T22:32:01.617Z,99.90
2018-05-31T22:34:35.560Z,99.90
2018-05-31T22:37:08.751Z,99.90
2018-05-31T22:39:41.974Z,99.90
2018-05-31T22:42:15.155Z,99.90
2018-05-31T22:44:48.447Z,99.90
2018-05-31T22:47:22.414Z,99.90
2018-05-31T22:49:55.643Z,99.90
2018-05-31T22:52:28.728Z,99.90
2018-05-31T22:55:01.986Z,99.90
2018-05-31T22:57:35.119Z,99.90
2018-05-31T23:00:08.125Z,99.90
2018-05-31T23:02:42.162Z,99.90
2018-05-31T23:05:15.301Z,99.90
2018-05-31T23:07:48.444Z,99.90
2018-05-31T23:10:22.405Z,99.90
2018-05-31T23:12:56.424Z,99.90
2018-05-31T23:15:29.525Z,99.90
2018-05-31T23:18:02.736Z,99.90
2018-05-31T23:20:36.807Z,99.90
2018-05-31T23:23:09.986Z,99.90
2018-05-31T23:25:43.265Z,99.90
2018-05-31T23:28:16.525Z,99.90
2018-05-31T23:30:49.495Z,99.90
2018-05-31T23:33:22.728Z,99.90
2018-05-31T23:35:55.932Z,99.90
2018-05-31T23:38:29.112Z,99.90
2018-05-31T23:41:02.338Z,99.90
2018-05-31T23:43:35.539Z,99.90
2018-05-31T23:46:08.689Z,99.90
2018-05-31T23:48:41.971Z,99.90
2018-05-31T23:51:15.154Z,99.90
2018-05-31T23:53:48.428Z,99.90
2018-05-31T23:56:22.411Z,99.90
2018-05-31T23:58:55.640Z,99.90
